createdAt,value
2022-11-17T00:03:52.773Z,8.60
2022-11-17T00:08:49.340Z,8.58
2022-11-17T00:14:04.506Z,8.55
2022-11-17T00:19:19.587Z,8.56
2022-11-17T00:24:16.745Z,8.55
2022-11-17T00:29:13.135Z,8.59
2022-11-17T00:34:16.166Z,8.54
2022-11-17T00:39:14.073Z,8.49
2022-11-17T00:44:11.029Z,8.45
2022-11-17T00:49:09.203Z,8.40
2022-11-17T00:54:06.792Z,8.32
2022-11-17T00:59:03.601Z,8.26
2022-11-17T01:04:03.738Z,8.19
2022-11-17T01:09:02.217Z,8.16
2022-11-17T01:14:00.526Z,8.08
2022-11-17T01:18:59.922Z,8.01
2022-11-17T01:23:58.165Z,7.91
2022-11-17T01:28:55.580Z,7.88
2022-11-17T01:33:52.619Z,7.81
2022-11-17T01:38:49.395Z,7.79
2022-11-17T01:44:16.284Z,7.78
2022-11-17T01:49:24.779Z,7.76
2022-11-17T01:54:23.349Z,7.74
2022-11-17T01:59:24.846Z,7.74
2022-11-17T02:04:44.818Z,7.72
2022-11-17T02:09:42.804Z,7.70
2022-11-17T02:14:39.914Z,7.69
2022-11-17T02:19:39.967Z,7.69
2022-11-17T02:25:04.588Z,7.67
2022-11-17T02:30:05.236Z,7.65
2022-11-17T02:35:07.359Z,7.61
2022-11-17T02:40:10.857Z,7.57
2022-11-17T02:45:11.224Z,7.55
2022-11-17T02:50:10.911Z,7.54
2022-11-17T02:55:10.308Z,7.52
2022-11-17T03:00:14.038Z,7.52
2022-11-17T03:05:25.482Z,7.56
2022-11-17T03:10:56.153Z,7.57
2022-11-17T03:16:07.833Z,7.56
2022-11-17T03:21:15.467Z,7.54
2022-11-17T03:26:15.508Z,7.49
2022-11-17T03:31:15.185Z,7.46
2022-11-17T03:36:15.046Z,7.43
2022-11-17T03:41:14.161Z,7.40
2022-11-17T03:46:14.878Z,7.39
2022-11-17T03:51:25.177Z,7.40
2022-11-17T03:56:45.548Z,7.39
2022-11-17T04:01:42.268Z,7.38
2022-11-17T04:06:38.717Z,7.39
2022-11-17T04:11:53.834Z,7.32
2022-11-17T04:16:50.213Z,7.30
2022-11-17T04:21:46.639Z,7.27
2022-11-17T04:27:02.363Z,7.23
2022-11-17T04:31:58.741Z,7.20
2022-11-17T04:36:55.129Z,7.14
2022-11-17T04:41:54.352Z,7.10
2022-11-17T04:46:51.344Z,7.05
2022-11-17T04:51:48.327Z,7.03
2022-11-17T04:56:46.482Z,6.98
2022-11-17T05:01:42.989Z,6.95
2022-11-17T05:06:42.425Z,6.96
2022-11-17T05:11:57.506Z,6.93
2022-11-17T05:17:10.078Z,6.94
2022-11-17T05:22:27.673Z,6.94
2022-11-17T05:27:24.893Z,6.94
2022-11-17T05:32:21.613Z,6.90
2022-11-17T05:37:18.317Z,6.88
2022-11-17T05:42:14.871Z,6.89
2022-11-17T05:47:11.304Z,6.86
2022-11-17T05:52:07.745Z,6.85
2022-11-17T05:57:14.878Z,6.84
2022-11-17T06:02:19.038Z,6.81
2022-11-17T06:07:15.831Z,6.79
2022-11-17T06:12:12.221Z,6.78
2022-11-17T06:17:38.031Z,6.77
2022-11-17T06:22:35.434Z,6.76
2022-11-17T06:27:33.310Z,6.79
2022-11-17T06:32:30.468Z,6.74
2022-11-17T06:37:26.841Z,6.74
2022-11-17T06:42:43.500Z,6.74
2022-11-17T06:47:40.084Z,6.74
2022-11-17T06:52:37.657Z,6.73
2022-11-17T06:57:34.030Z,6.78
2022-11-17T07:02:31.811Z,6.79
2022-11-17T07:07:28.229Z,6.81
2022-11-17T07:12:24.768Z,6.84
2022-11-17T07:17:21.153Z,6.89
2022-11-17T07:22:17.496Z,6.93
2022-11-17T07:27:13.911Z,7.00
2022-11-17T07:32:12.021Z,7.04
2022-11-17T07:37:08.545Z,7.08
2022-11-17T07:42:05.022Z,7.10
2022-11-17T07:47:01.769Z,7.17
2022-11-17T07:51:58.173Z,7.25
2022-11-17T07:56:54.527Z,7.30
2022-11-17T08:01:50.896Z,7.34
2022-11-17T08:06:47.367Z,7.39
2022-11-17T08:11:44.044Z,7.41
2022-11-17T08:16:40.943Z,7.42
2022-11-17T08:21:37.544Z,7.40
2022-11-17T08:26:34.122Z,7.41
2022-11-17T08:31:30.679Z,7.43
2022-11-17T08:36:27.043Z,7.37
2022-11-17T08:41:23.580Z,7.33
2022-11-17T08:46:20.032Z,7.29
2022-11-17T08:51:16.501Z,7.26
2022-11-17T08:56:13.690Z,7.23
2022-11-17T09:01:11.785Z,7.17
2022-11-17T09:06:08.442Z,7.09
2022-11-17T09:11:12.032Z,7.07
2022-11-17T09:16:10.653Z,7.08
2022-11-17T09:21:08.449Z,7.18
2022-11-17T09:26:11.290Z,7.26
2022-11-17T09:31:12.876Z,7.35
2022-11-17T09:36:10.717Z,7.48
2022-11-17T09:41:16.138Z,7.45
2022-11-17T09:46:19.979Z,7.48
2022-11-17T09:51:20.506Z,7.62
2022-11-17T09:56:19.079Z,7.57
2022-11-17T10:01:16.746Z,7.63
2022-11-17T10:06:18.463Z,7.68
2022-11-17T10:11:31.856Z,7.66
2022-11-17T10:16:28.300Z,7.59
2022-11-17T10:21:28.423Z,7.65
2022-11-17T10:26:28.116Z,7.67
2022-11-17T10:31:24.493Z,7.71
2022-11-17T10:36:25.160Z,7.78
2022-11-17T10:41:32.452Z,7.88
2022-11-17T10:46:38.226Z,7.93
2022-11-17T10:51:39.983Z,7.95
2022-11-17T10:56:42.508Z,7.97
2022-11-17T11:01:42.420Z,8.08
2022-11-17T11:06:38.814Z,8.11
2022-11-17T11:11:43.208Z,8.13
2022-11-17T11:16:45.045Z,8.11
2022-11-17T11:21:46.960Z,8.15
2022-11-17T11:27:07.504Z,8.29
2022-11-17T11:32:36.970Z,8.35
2022-11-17T11:37:41.235Z,8.35
2022-11-17T11:42:43.325Z,8.36
2022-11-17T11:48:03.951Z,8.45
2022-11-17T11:53:17.380Z,8.50
2022-11-17T11:58:24.614Z,8.61
2022-11-17T12:03:48.796Z,8.71
2022-11-17T12:08:55.822Z,8.87
2022-11-17T12:13:54.586Z,9.00
2022-11-17T12:18:51.069Z,9.24
2022-11-17T12:23:53.201Z,9.42
2022-11-17T12:28:49.735Z,9.60
2022-11-17T12:33:51.813Z,9.63
2022-11-17T12:38:48.174Z,9.54
2022-11-17T12:43:44.521Z,9.48
2022-11-17T12:48:54.045Z,9.39
2022-11-17T12:54:03.517Z,9.37
2022-11-17T12:59:37.378Z,9.34
2022-11-17T13:04:43.773Z,9.48
2022-11-17T13:09:42.762Z,9.57
2022-11-17T13:14:59.286Z,9.67
2022-11-17T13:20:29.588Z,9.83
2022-11-17T13:25:26.098Z,9.98
2022-11-17T13:30:24.682Z,10.00
2022-11-17T13:35:23.896Z,10.01
2022-11-17T13:40:22.011Z,9.93
2022-11-17T13:45:18.514Z,9.97
2022-11-17T13:50:27.214Z,10.03
2022-11-17T13:55:25.101Z,10.10
2022-11-17T14:00:22.018Z,10.14
2022-11-17T14:05:26.047Z,10.16
2022-11-17T14:10:22.476Z,10.20
2022-11-17T14:15:24.632Z,10.21
2022-11-17T14:20:23.735Z,10.15
2022-11-17T14:25:20.211Z,10.12
2022-11-17T14:30:16.603Z,10.03
2022-11-17T14:35:14.641Z,9.92
2022-11-17T14:40:18.409Z,9.86
2022-11-17T14:45:16.820Z,9.77
2022-11-17T14:50:14.405Z,9.67
2022-11-17T14:55:14.597Z,9.55
2022-11-17T15:00:18.813Z,9.43
2022-11-17T15:05:17.471Z,9.28
2022-11-17T15:10:13.840Z,9.20
2022-11-17T15:15:10.596Z,9.06
2022-11-17T15:20:07.591Z,8.91
2022-11-17T15:25:04.287Z,8.80
2022-11-17T15:30:00.650Z,8.77
2022-11-17T15:34:57.031Z,8.69
2022-11-17T15:39:53.746Z,8.65
2022-11-17T15:44:50.243Z,8.58
2022-11-17T15:49:46.801Z,8.49
2022-11-17T15:54:43.184Z,8.45
2022-11-17T15:59:39.787Z,8.39
2022-11-17T16:04:36.365Z,8.23
2022-11-17T16:09:34.373Z,8.17
2022-11-17T16:14:30.733Z,8.16
2022-11-17T16:19:27.143Z,8.23
2022-11-17T16:24:23.559Z,8.29
2022-11-17T16:29:19.948Z,8.30
2022-11-17T16:34:17.807Z,8.33
2022-11-17T16:39:17.382Z,8.40
2022-11-17T16:44:18.205Z,8.38
2022-11-17T16:49:16.723Z,8.36
2022-11-17T16:54:13.319Z,8.37
2022-11-17T16:59:11.278Z,8.37
2022-11-17T17:04:09.895Z,8.36
2022-11-17T17:09:07.661Z,8.36
2022-11-17T17:14:06.465Z,8.33
2022-11-17T17:19:05.507Z,8.31
2022-11-17T17:24:03.243Z,8.27
2022-11-17T17:29:01.436Z,8.27
2022-11-17T17:33:59.906Z,8.21
2022-11-17T17:38:58.744Z,8.13
2022-11-17T17:44:04.277Z,8.08
2022-11-17T17:49:00.776Z,8.01
2022-11-17T17:54:00.923Z,7.92
2022-11-17T17:58:57.925Z,7.84
2022-11-17T18:04:01.177Z,7.82
2022-11-17T18:08:59.027Z,7.81
2022-11-17T18:13:55.570Z,7.77
2022-11-17T18:18:57.247Z,7.73
2022-11-17T18:23:54.199Z,7.71
2022-11-17T18:28:55.865Z,7.62
2022-11-17T18:33:53.820Z,7.62
2022-11-17T18:38:51.066Z,7.63
2022-11-17T18:43:48.267Z,7.64
2022-11-17T18:48:48.005Z,7.65
2022-11-17T18:53:44.552Z,7.71
2022-11-17T18:58:42.523Z,7.68
2022-11-17T19:03:39.643Z,7.61
2022-11-17T19:08:36.872Z,7.53
2022-11-17T19:13:35.152Z,7.49
2022-11-17T19:18:31.580Z,7.46
2022-11-17T19:23:28.560Z,7.43
2022-11-17T19:28:24.945Z,7.37
2022-11-17T19:33:21.521Z,7.43
2022-11-17T19:38:17.981Z,7.40
2022-11-17T19:43:17.923Z,7.41
2022-11-17T19:48:14.373Z,7.35
2022-11-17T19:53:10.891Z,7.35
2022-11-17T19:58:07.277Z,7.32
2022-11-17T20:03:03.785Z,7.41
2022-11-17T20:08:00.425Z,7.39
2022-11-17T20:12:57.101Z,7.48
2022-11-17T20:17:53.733Z,7.50
2022-11-17T20:22:50.598Z,7.57
2022-11-17T20:27:46.937Z,7.61
2022-11-17T20:32:43.317Z,7.68
2022-11-17T20:37:39.703Z,7.75
2022-11-17T20:42:35.992Z,7.75
2022-11-17T20:47:32.397Z,7.79
2022-11-17T20:52:28.684Z,7.84
2022-11-17T20:57:25.332Z,7.87
2022-11-17T21:02:21.633Z,7.88
2022-11-17T21:07:18.049Z,7.91
2022-11-17T21:12:14.735Z,7.89
2022-11-17T21:17:31.230Z,7.91
2022-11-17T21:22:28.229Z,7.93
2022-11-17T21:27:24.551Z,7.93
2022-11-17T21:32:20.848Z,7.89
2022-11-17T21:37:17.679Z,7.93
2022-11-17T21:42:13.980Z,7.78
2022-11-17T21:47:10.305Z,7.73
2022-11-17T21:52:06.869Z,7.73
2022-11-17T21:57:03.353Z,7.54
2022-11-17T22:01:59.912Z,7.53
2022-11-17T22:06:56.230Z,7.38
2022-11-17T22:11:53.069Z,7.51
2022-11-17T22:16:54.947Z,7.43
2022-11-17T22:21:53.004Z,7.36
2022-11-17T22:26:51.389Z,7.34
2022-11-17T22:31:48.797Z,7.34
2022-11-17T22:36:45.691Z,7.32
2022-11-17T22:41:42.016Z,7.29
2022-11-17T22:46:40.620Z,7.26
2022-11-17T22:51:55.529Z,7.25
2022-11-17T22:56:51.910Z,7.29
2022-11-17T23:01:48.307Z,7.26
2022-11-17T23:06:44.642Z,7.08
2022-11-17T23:11:42.216Z,6.92
2022-11-17T23:16:39.723Z,6.86
2022-11-17T23:21:36.085Z,6.72
2022-11-17T23:26:33.293Z,6.71
2022-11-17T23:31:29.692Z,6.68
2022-11-17T23:36:26.307Z,6.79
2022-11-17T23:41:22.606Z,6.80
2022-11-17T23:46:22.331Z,6.82
2022-11-17T23:51:20.994Z,6.92
2022-11-17T23:56:20.649Z,6.87
